Time;durP1;ratioP1;P1;durP2;ratioP2;P2;SDS_P1;SDS_P2;PMS_P1;PMS_P2;Temp;Humidity;BMP_temperature;BMP_pressure;BME280_temperature;BME280_humidity;BME280_pressure;Samples;Min_cycle;Max_cycle;Signal;HPM_P1;HPM_P2
2022/05/13 00:01:09;;;;;;;2.47;1.47;;;13.10;73.80;13.00;100733.00;;;;4938660;28;93049;-68
2022/05/13 00:03:37;;;;;;;3.30;1.73;;;13.10;74.10;13.00;100730.00;;;;4952807;28;94392;-67
2022/05/13 00:06:03;;;;;;;1.70;1.60;;;13.00;74.20;13.00;100725.00;;;;4949387;28;93628;-67
2022/05/13 00:08:33;;;;;;;1.40;1.30;;;13.00;74.60;12.90;100725.00;;;;4935007;28;94193;-67
2022/05/13 00:11:01;;;;;;;3.27;1.70;;;12.90;74.90;12.90;100728.00;;;;4934216;28;93686;-67
2022/05/13 00:13:29;;;;;;;2.03;1.83;;;12.90;75.40;12.80;100720.00;;;;4958469;28;93096;-67
2022/05/13 00:15:55;;;;;;;2.20;1.70;;;12.80;75.80;12.70;100717.00;;;;4953782;28;92995;-67
2022/05/13 00:18:21;;;;;;;2.73;1.67;;;12.80;76.20;12.70;100720.00;;;;4949393;28;114126;-67
2022/05/13 00:20:47;;;;;;;1.20;1.17;;;12.70;76.50;12.60;100727.00;;;;4949990;28;123185;-67
2022/05/13 00:23:13;;;;;;;1.00;1.00;;;12.70;77.00;12.60;100730.00;;;;4945026;28;99762;-68
2022/05/13 00:25:39;;;;;;;1.10;1.07;;;12.60;77.40;12.50;100732.00;;;;4932831;28;92833;-67
2022/05/13 00:28:08;;;;;;;1.47;1.37;;;12.50;77.80;12.50;100729.00;;;;4933890;28;112933;-67
2022/05/13 00:30:38;;;;;;;2.27;2.07;;;12.50;78.30;12.40;100728.00;;;;4934353;28;93877;-67
2022/05/13 00:33:05;;;;;;;1.87;1.67;;;12.40;78.60;12.30;100725.00;;;;4937354;28;93195;-67
2022/05/13 00:35:31;;;;;;;1.57;1.33;;;12.50;79.20;12.30;100728.00;;;;4936981;28;92829;-67
2022/05/13 00:37:56;;;;;;;3.33;1.50;;;12.30;79.60;12.20;100734.00;;;;4933855;28;121895;-67
2022/05/13 00:40:23;;;;;;;4.07;2.03;;;12.20;79.90;12.10;100732.00;;;;4933278;28;122884;-67
2022/05/13 00:42:50;;;;;;;4.73;2.57;;;12.20;80.90;12.10;100737.00;;;;4935185;28;93196;-67
2022/05/13 00:45:17;;;;;;;2.87;2.20;;;12.10;81.90;11.90;100737.00;;;;4950052;28;105622;-68
2022/05/13 00:47:44;;;;;;;2.40;1.90;;;12.00;82.60;11.80;100737.00;;;;4953590;28;109964;-68
2022/05/13 00:50:14;;;;;;;3.27;2.07;;;11.90;83.10;11.70;100733.00;;;;4952531;28;110078;-68
2022/05/13 00:52:48;;;;;;;1.57;1.47;;;11.80;83.90;11.70;100732.00;;;;4952204;28;93034;-68
2022/05/13 00:55:22;;;;;;;3.57;2.20;;;11.70;84.30;11.60;100731.00;;;;4935816;28;94143;-68
2022/05/13 00:57:49;;;;;;;2.33;1.77;;;11.60;84.70;11.60;100724.00;;;;4948572;28;93901;-68
2022/05/13 01:00:15;;;;;;;2.37;1.47;;;11.60;85.30;11.50;100719.00;;;;4961163;28;93881;-68
2022/05/13 01:02:43;;;;;;;3.20;1.67;;;11.60;85.80;11.50;100713.00;;;;4942814;28;92753;-67
2022/05/13 01:05:13;;;;;;;2.47;2.23;;;11.50;86.30;11.40;100717.00;;;;4949988;28;100469;-67
2022/05/13 01:07:39;;;;;;;4.83;3.30;;;11.50;86.90;11.40;100719.00;;;;4933949;28;94300;-67
2022/05/13 01:10:08;;;;;;;3.57;2.33;;;11.40;87.40;11.30;100717.00;;;;4946816;28;94322;-67
2022/05/13 01:12:38;;;;;;;5.87;2.80;;;11.40;88.00;11.30;100715.00;;;;4953022;28;102901;-67
2022/05/13 01:15:16;;;;;;;2.10;1.90;;;11.30;88.50;11.30;100716.00;;;;4950522;28;95177;-67
2022/05/13 01:20:36;;;;;;;3.07;2.53;;;11.30;89.10;11.20;100724.00;;;;4933213;28;93957;-68
2022/05/13 01:23:21;;;;;;;3.40;1.60;;;11.30;89.60;11.10;100722.00;;;;4933488;28;93157;-67
2022/05/13 01:25:56;;;;;;;2.00;1.80;;;11.20;90.00;11.10;100725.00;;;;4961549;28;92988;-67
2022/05/13 01:28:30;;;;;;;2.70;2.23;;;11.20;90.20;11.00;100705.00;;;;4934017;28;94195;-68
2022/05/13 01:31:00;;;;;;;2.50;1.73;;;11.10;90.40;11.00;100709.00;;;;4947418;28;95075;-67
2022/05/13 01:33:27;;;;;;;3.43;2.20;;;11.10;90.70;10.90;100701.00;;;;4948205;28;92952;-67
2022/05/13 01:35:56;;;;;;;2.20;1.57;;;11.00;90.90;10.90;100696.00;;;;4952152;28;92895;-67
2022/05/13 01:38:27;;;;;;;2.07;1.60;;;11.00;91.30;10.80;100707.00;;;;4949489;28;92497;-67
2022/05/13 01:40:52;;;;;;;2.40;1.43;;;10.80;91.60;10.70;100695.00;;;;4932786;28;92906;-67
2022/05/13 01:43:18;;;;;;;3.63;2.10;;;10.80;91.90;10.70;100692.00;;;;4933401;28;110166;-68
2022/05/13 01:45:44;;;;;;;2.00;1.90;;;10.70;92.10;10.60;100693.00;;;;4932341;28;108666;-68
2022/05/13 01:48:11;;;;;;;1.60;1.50;;;10.70;92.50;10.60;100689.00;;;;4935808;28;93430;-67
2022/05/13 01:50:37;;;;;;;1.97;1.87;;;10.70;92.60;10.60;100685.00;;;;4952174;28;117718;-68
2022/05/13 01:53:04;;;;;;;1.23;1.13;;;10.60;92.80;10.50;100684.00;;;;4953482;28;93052;-68
2022/05/13 01:55:30;;;;;;;2.90;1.80;;;10.60;93.00;10.50;100682.00;;;;4952911;28;92794;-68
2022/05/13 01:57:56;;;;;;;1.63;1.37;;;10.80;93.30;10.40;100680.00;;;;4951607;28;122541;-68
2022/05/13 02:00:22;;;;;;;2.07;1.67;;;10.50;93.40;10.40;100688.00;;;;4945817;28;122299;-68
2022/05/13 02:05:33;;;;;;;0.93;0.93;;;10.40;93.80;10.30;100680.00;;;;4952361;28;92811;-68
2022/05/13 02:07:59;;;;;;;3.07;2.00;;;10.30;93.90;10.20;100675.00;;;;4950573;28;116518;-69
2022/05/13 02:10:24;;;;;;;1.73;1.47;;;10.30;94.10;10.20;100679.00;;;;4930902;28;94220;-68
2022/05/13 02:12:50;;;;;;;2.27;1.53;;;10.30;94.30;10.20;100678.00;;;;4932226;28;108869;-68
2022/05/13 02:15:17;;;;;;;2.10;1.50;;;10.30;94.50;10.20;100676.00;;;;4946110;28;98783;-68
2022/05/13 02:17:43;;;;;;;2.83;1.60;;;10.20;94.70;10.10;100681.00;;;;4950737;28;92988;-68
2022/05/13 02:20:10;;;;;;;1.63;1.30;;;10.20;94.90;10.10;100676.00;;;;4935243;28;122045;-68
2022/05/13 02:22:36;;;;;;;2.70;2.33;;;10.20;95.10;10.10;100673.00;;;;4933369;28;92757;-68
2022/05/13 02:25:02;;;;;;;1.67;1.50;;;10.10;95.30;10.00;100676.00;;;;4934304;28;92833;-68
2022/05/13 02:27:28;;;;;;;2.07;1.93;;;10.10;95.50;10.00;100684.00;;;;4932713;28;101799;-67
2022/05/13 02:29:53;;;;;;;2.03;1.93;;;9.90;95.70;9.90;100680.00;;;;4948342;28;93091;-68
2022/05/13 02:32:20;;;;;;;2.17;1.70;;;10.00;95.90;9.90;100676.00;;;;4953184;28;92897;-68
2022/05/13 02:34:45;;;;;;;1.70;1.60;;;10.00;96.10;9.90;100683.00;;;;4952376;28;93856;-68
2022/05/13 02:37:11;;;;;;;3.87;1.63;;;10.00;96.30;9.80;100676.00;;;;4951188;28;123534;-68
2022/05/13 02:39:37;;;;;;;3.80;1.70;;;9.90;96.50;9.80;100683.00;;;;4939164;28;122933;-68
2022/05/13 02:42:03;;;;;;;2.67;1.73;;;9.90;96.60;9.80;100683.00;;;;4939884;28;97336;-68
2022/05/13 02:44:29;;;;;;;1.87;1.50;;;9.90;96.80;9.70;100681.00;;;;4952183;28;99534;-68
2022/05/13 02:46:55;;;;;;;2.33;1.87;;;9.80;97.10;9.70;100684.00;;;;4951802;28;100964;-68
2022/05/13 02:49:21;;;;;;;2.80;1.53;;;9.80;97.40;9.70;100678.00;;;;4942226;28;105565;-68
2022/05/13 02:51:49;;;;;;;1.67;1.37;;;9.70;97.60;9.60;100673.00;;;;4963548;28;92092;-68
2022/05/13 02:54:16;;;;;;;1.70;1.30;;;9.70;97.90;9.60;100679.00;;;;4938241;28;93077;-67
2022/05/13 02:56:43;;;;;;;1.57;1.40;;;9.70;98.10;9.60;100688.00;;;;4952197;28;94476;-67
2022/05/13 02:59:21;;;;;;;1.10;0.83;;;9.60;98.30;9.60;100678.00;;;;4949358;28;93736;-67
2022/05/13 03:01:47;;;;;;;2.33;2.10;;;9.60;98.50;9.60;100679.00;;;;4949607;28;92992;-67
2022/05/13 03:04:12;;;;;;;5.77;1.97;;;9.60;98.50;9.50;100677.00;;;;4951455;28;107384;-68
2022/05/13 03:06:38;;;;;;;3.57;3.27;;;9.60;98.70;9.50;100670.00;;;;4950690;28;114932;-67
2022/05/13 03:09:04;;;;;;;4.63;4.20;;;9.60;98.90;9.40;100670.00;;;;4944576;28;122304;-67
2022/05/13 03:11:29;;;;;;;5.07;3.70;;;9.40;99.00;9.40;100673.00;;;;4932877;28;92834;-68
2022/05/13 03:13:55;;;;;;;4.27;3.87;;;9.50;99.30;9.40;100664.00;;;;4934618;28;109399;-68
2022/05/13 03:16:24;;;;;;;4.23;3.80;;;9.50;99.50;9.40;100663.00;;;;4935070;28;122027;-67
2022/05/13 03:18:58;;;;;;;4.63;2.10;;;9.40;99.60;9.30;100663.00;;;;4936558;28;97767;-69
2022/05/13 03:21:24;;;;;;;3.07;2.10;;;9.40;99.80;9.30;100667.00;;;;4961743;28;93064;-68
2022/05/13 03:23:50;;;;;;;3.63;1.90;;;9.40;99.90;9.20;100663.00;;;;4937373;28;93707;-68
2022/05/13 03:26:19;;;;;;;2.80;2.30;;;9.30;99.90;9.20;100661.00;;;;4952056;28;93580;-67
2022/05/13 03:28:46;;;;;;;2.23;2.03;;;9.30;99.90;9.20;100665.00;;;;4936243;28;93941;-68
2022/05/13 03:31:13;;;;;;;2.37;1.90;;;9.30;99.90;9.20;100665.00;;;;4958804;28;110356;-68
2022/05/13 03:33:39;;;;;;;7.53;5.63;;;9.60;99.90;9.20;100665.00;;;;4954819;28;93081;-68
2022/05/13 03:36:06;;;;;;;4.00;3.60;;;9.30;99.90;9.20;100657.00;;;;4935722;28;93628;-68
2022/05/13 03:38:32;;;;;;;3.10;2.83;;;9.20;99.90;9.20;100659.00;;;;4949637;28;93141;-67
2022/05/13 03:40:58;;;;;;;2.27;2.07;;;9.20;99.90;9.20;100655.00;;;;4954907;28;92668;-68
2022/05/13 03:43:24;;;;;;;2.10;1.87;;;9.20;99.90;9.10;100654.00;;;;4952988;28;92698;-68
2022/05/13 03:45:50;;;;;;;2.07;1.40;;;9.20;99.90;9.10;100659.00;;;;4936171;28;99315;-67
2022/05/13 03:48:16;;;;;;;2.83;1.57;;;9.20;99.90;9.10;100654.00;;;;4942534;28;93766;-68
2022/05/13 03:50:45;;;;;;;4.50;3.40;;;9.20;99.90;9.10;100652.00;;;;4953369;28;110162;-68
2022/05/13 03:53:12;;;;;;;7.47;1.60;;;9.20;99.90;9.10;100656.00;;;;4939369;28;92925;-68
2022/05/13 03:55:37;;;;;;;2.53;1.97;;;9.10;99.90;9.00;100642.00;;;;4934192;28;110292;-68
2022/05/13 03:58:04;;;;;;;1.87;1.77;;;9.10;99.90;9.00;100645.00;;;;4934054;28;121064;-67
2022/05/13 04:00:32;;;;;;;2.37;1.60;;;9.10;99.90;9.00;100652.00;;;;4949650;28;101185;-68
2022/05/13 04:02:59;;;;;;;2.13;1.93;;;9.10;99.90;9.00;100646.00;;;;4949622;28;92974;-67
2022/05/13 04:10:53;;;;;;;2.77;2.23;;;9.20;99.90;9.30;100655.00;;;;4954541;28;92935;-68
2022/05/13 04:16:05;;;;;;;1.90;1.70;;;9.40;99.90;9.50;100655.00;;;;4954763;28;92882;-68
2022/05/13 04:18:40;;;;;;;2.47;2.00;;;9.50;99.90;9.60;100645.00;;;;4952237;28;92914;-68
2022/05/13 04:21:11;;;;;;;1.93;1.70;;;9.60;99.90;9.80;100653.00;;;;4951490;28;92785;-67
2022/05/13 04:23:41;;;;;;;3.10;2.30;;;9.70;99.90;9.90;100651.00;;;;4950371;28;92910;-68
2022/05/13 04:26:08;;;;;;;6.33;1.97;;;9.90;99.90;10.00;100652.00;;;;4950123;28;93767;-67
2022/05/13 04:28:33;;;;;;;3.57;2.13;;;10.00;99.90;10.10;100655.00;;;;4949868;28;93795;-68
2022/05/13 04:30:59;;;;;;;2.27;1.90;;;10.10;99.90;10.30;100659.00;;;;4950791;28;92901;-68
2022/05/13 04:33:26;;;;;;;1.63;1.53;;;10.20;99.90;10.30;100653.00;;;;4946030;28;108084;-68
2022/05/13 04:35:52;;;;;;;1.90;1.70;;;10.30;99.90;10.40;100657.00;;;;4958928;28;123647;-68
2022/05/13 04:38:18;;;;;;;4.83;1.90;;;10.40;99.90;10.50;100655.00;;;;4983052;28;121735;-68
2022/05/13 04:40:44;;;;;;;3.50;1.77;;;10.50;99.90;10.60;100667.00;;;;4957472;28;110822;-67
2022/05/13 04:43:09;;;;;;;1.47;1.37;;;10.50;99.90;10.70;100663.00;;;;4942831;28;93222;-67
2022/05/13 04:45:35;;;;;;;1.43;1.33;;;10.70;99.90;10.90;100668.00;;;;4944179;28;123881;-68
2022/05/13 04:48:22;;;;;;;1.77;1.63;;;10.80;99.90;11.10;100673.00;;;;4950208;28;123834;-68
2022/05/13 04:50:53;;;;;;;1.70;1.43;;;11.00;99.90;11.30;100681.00;;;;4948124;28;93107;-66
2022/05/13 04:53:22;;;;;;;1.83;1.53;;;11.20;99.90;11.40;100676.00;;;;4949145;28;93139;-67
2022/05/13 04:55:50;;;;;;;1.73;1.63;;;11.40;99.90;11.60;100670.00;;;;4949284;28;93524;-67
2022/05/13 04:58:16;;;;;;;2.20;2.00;;;11.60;99.90;11.80;100676.00;;;;4963966;28;94388;-67
2022/05/13 05:00:43;;;;;;;2.40;2.20;;;11.70;99.90;12.00;100671.00;;;;4948638;28;104909;-66
2022/05/13 05:03:09;;;;;;;1.43;1.33;;;11.90;99.90;12.20;100675.00;;;;4948794;28;93747;-66
2022/05/13 05:05:35;;;;;;;1.17;1.13;;;12.10;99.90;12.30;100671.00;;;;4939379;28;111495;-67
2022/05/13 05:08:01;;;;;;;4.53;1.63;;;12.20;99.90;12.50;100669.00;;;;4949050;28;123005;-67
2022/05/13 05:10:27;;;;;;;2.17;1.50;;;12.40;99.90;12.60;100667.00;;;;4947248;28;93082;-67
2022/05/13 05:12:57;;;;;;;2.30;1.43;;;12.50;99.90;12.80;100658.00;;;;4941405;28;107783;-66
2022/05/13 05:15:23;;;;;;;2.33;1.73;;;12.70;99.90;13.00;100660.00;;;;4963909;28;117437;-66
2022/05/13 05:17:50;;;;;;;2.77;1.50;;;12.80;99.90;13.20;100665.00;;;;4948056;28;94547;-68
2022/05/13 05:20:41;;;;;;;2.30;1.70;;;13.10;99.90;13.50;100661.00;;;;4938721;28;92244;-67
2022/05/13 05:23:13;;;;;;;1.93;1.50;;;13.40;99.90;13.70;100667.00;;;;4944960;28;93156;-68
2022/05/13 05:25:43;;;;;;;1.87;1.40;;;13.60;99.70;14.00;100655.00;;;;4949290;28;94012;-68
2022/05/13 05:28:09;;;;;;;2.03;1.47;;;13.80;99.20;14.30;100663.00;;;;4949284;28;93815;-67
2022/05/13 05:30:35;;;;;;;2.53;1.57;;;14.10;98.70;14.50;100664.00;;;;4945626;28;103362;-67
2022/05/13 05:33:01;;;;;;;1.57;1.47;;;14.30;98.20;14.70;100661.00;;;;4944945;28;93098;-68
2022/05/13 05:35:28;;;;;;;2.92;1.95;;;14.50;97.80;14.90;100669.00;;;;4947072;28;117174;-68
2022/05/13 05:37:54;;;;;;;1.58;1.27;;;14.70;97.20;15.10;100674.00;;;;4949186;28;92721;-68
2022/05/13 05:40:20;;;;;;;2.17;1.98;;;14.90;96.90;15.30;100664.00;;;;4941349;28;100706;-67
2022/05/13 05:42:48;;;;;;;1.45;1.30;;;15.10;96.60;15.60;100672.00;;;;4948293;28;92823;-68
2022/05/13 05:45:16;;;;;;;1.48;1.38;;;15.40;96.20;15.90;100669.00;;;;4946928;28;93157;-67
2022/05/13 05:47:42;;;;;;;2.00;1.33;;;15.60;95.80;16.20;100678.00;;;;4949136;28;93465;-67
2022/05/13 05:50:26;;;;;;;3.67;1.50;;;15.90;95.50;16.40;100678.00;;;;4942498;28;103838;-66
2022/05/13 05:52:52;;;;;;;1.50;1.33;;;16.20;94.30;16.50;100678.00;;;;4947826;28;108486;-65
2022/05/13 05:58:07;;;;;;;1.58;1.13;;;16.40;92.90;16.70;100676.00;;;;4947743;28;92822;-65
2022/05/13 06:00:38;;;;;;;1.70;1.00;;;16.60;92.50;16.90;100675.00;;;;4942594;28;96825;-65
2022/05/13 06:03:04;;;;;;;2.67;1.45;;;16.70;92.10;17.10;100684.00;;;;4949510;28;92919;-65
2022/05/13 06:05:30;;;;;;;1.15;1.00;;;16.90;91.80;17.40;100676.00;;;;4944625;28;103711;-65
2022/05/13 06:07:58;;;;;;;1.27;1.17;;;17.20;91.30;17.60;100673.00;;;;4948781;28;102534;-67
2022/05/13 06:10:32;;;;;;;5.68;1.42;;;17.40;90.40;17.80;100672.00;;;;4830216;28;10001087;-68
2022/05/13 06:12:58;;;;;;;2.17;1.27;;;17.60;88.60;18.00;100673.00;;;;4430209;28;10000922;-66
2022/05/13 06:15:24;;;;;;;1.00;1.00;;;17.80;87.90;18.10;100685.00;;;;4953076;28;108922;-66
2022/05/13 06:17:53;;;;;;;1.15;0.85;;;17.90;86.20;18.30;100687.00;;;;4952742;28;94707;-66
2022/05/13 06:20:27;;;;;;;1.52;1.00;;;18.10;85.60;18.50;100692.00;;;;4950048;28;96708;-68
2022/05/13 06:22:53;;;;;;;1.08;0.98;;;18.30;84.20;18.70;100680.00;;;;4947251;28;92947;-68
2022/05/13 06:25:22;;;;;;;2.40;1.35;;;18.50;82.80;18.90;100683.00;;;;4951913;28;108122;-67
2022/05/13 06:27:51;;;;;;;1.15;0.80;;;18.70;81.00;19.00;100680.00;;;;4952639;28;93994;-67
2022/05/13 06:30:25;;;;;;;1.90;1.20;;;18.80;79.70;19.10;100677.00;;;;4947691;28;92830;-67
2022/05/13 06:32:52;;;;;;;0.68;0.68;;;19.00;77.70;19.20;100669.00;;;;4947874;28;92913;-67
2022/05/13 06:35:18;;;;;;;1.55;1.20;;;19.00;76.10;19.20;100666.00;;;;4967457;28;92191;-66
2022/05/13 06:37:44;;;;;;;0.68;0.65;;;19.10;74.80;19.30;100673.00;;;;4948214;28;93980;-63
2022/05/13 06:40:10;;;;;;;2.53;1.30;;;19.20;73.50;19.50;100663.00;;;;4944272;28;121262;-66
2022/05/13 06:42:36;;;;;;;3.45;1.02;;;19.30;73.00;19.70;100674.00;;;;4947658;28;94115;-66
2022/05/13 06:45:03;;;;;;;0.70;0.70;;;19.40;73.20;19.90;100673.00;;;;4952895;28;92814;-66
2022/05/13 06:47:29;;;;;;;3.33;1.70;;;19.60;73.00;20.10;100682.00;;;;4952242;28;105252;-66
2022/05/13 06:49:55;;;;;;;1.25;0.98;;;19.80;72.20;20.40;100681.00;;;;4951428;28;122317;-68
2022/05/13 06:52:20;;;;;;;2.28;0.90;;;20.10;70.70;20.50;100685.00;;;;4954250;28;110434;-67
2022/05/13 06:54:46;;;;;;;1.67;1.00;;;20.30;69.20;20.60;100679.00;;;;4936475;28;100362;-66
2022/05/13 06:57:12;;;;;;;2.83;1.10;;;20.40;68.10;20.70;100679.00;;;;4953690;28;123883;-66
2022/05/13 06:59:38;;;;;;;0.80;0.80;;;20.50;67.20;20.90;100686.00;;;;4955297;28;101381;-66
2022/05/13 07:02:05;;;;;;;1.05;0.95;;;20.70;66.50;20.90;100679.00;;;;4953788;28;106778;-66
2022/05/13 07:04:32;;;;;;;1.08;0.52;;;20.80;65.80;21.10;100688.00;;;;4955373;28;93863;-67
2022/05/13 07:06:59;;;;;;;2.15;1.48;;;20.90;64.70;21.20;100676.00;;;;4954834;28;95024;-67
2022/05/13 07:09:26;;;;;;;1.08;0.88;;;21.00;63.80;21.40;100676.00;;;;4954669;28;94688;-68
2022/05/13 07:11:52;;;;;;;5.70;0.95;;;21.10;63.60;21.60;100667.00;;;;4955412;28;92991;-68
2022/05/13 07:14:18;;;;;;;4.88;1.05;;;21.40;62.30;21.90;100673.00;;;;4953296;28;92971;-68
2022/05/13 07:16:44;;;;;;;1.95;1.20;;;21.60;61.80;22.20;100675.00;;;;4955441;28;123047;-68
2022/05/13 07:19:09;;;;;;;1.27;1.17;;;21.90;61.10;22.50;100673.00;;;;4950940;28;121969;-67
2022/05/13 07:21:36;;;;;;;2.63;0.85;;;22.20;60.40;22.90;100672.00;;;;4946815;28;110591;-65
2022/05/13 07:24:05;;;;;;;1.20;0.98;;;22.50;59.20;23.10;100669.00;;;;4950440;28;92285;-66
2022/05/13 07:26:31;;;;;;;2.30;1.02;;;22.80;58.10;23.40;100667.00;;;;4956143;28;93078;-65
2022/05/13 07:28:57;;;;;;;1.05;0.90;;;23.10;57.20;23.60;100664.00;;;;4953991;28;122498;-67
2022/05/13 07:31:22;;;;;;;0.68;0.68;;;23.30;55.30;23.70;100657.00;;;;4956375;28;94039;-67
2022/05/13 07:33:48;;;;;;;1.80;0.90;;;23.50;54.80;23.90;100658.00;;;;4954588;28;108591;-66
2022/05/13 07:36:14;;;;;;;0.98;0.70;;;23.70;52.90;23.90;100651.00;;;;4955158;28;122328;-66
2022/05/13 07:41:16;;;;;;;1.00;0.90;;;23.70;52.00;24.00;100658.00;;;;4953545;28;120497;-67
2022/05/13 07:41:26;;;;;;;0.75;0.60;;;23.80;51.30;24.10;100654.00;;;;4951139;28;93132;-67
2022/05/13 07:43:52;;;;;;;1.05;0.75;;;23.80;51.20;24.20;100638.00;;;;4955091;28;92698;-69
2022/05/13 07:46:18;;;;;;;0.88;0.30;;;24.00;50.60;24.20;100642.00;;;;4955440;28;94270;-68
2022/05/13 07:48:44;;;;;;;0.77;0.73;;;24.00;49.20;24.30;100640.00;;;;4954641;28;102421;-68
2022/05/13 07:51:11;;;;;;;1.10;0.75;;;24.10;49.30;24.30;100646.00;;;;4949161;28;93122;-68
2022/05/13 07:53:38;;;;;;;1.38;0.57;;;24.10;48.30;24.10;100644.00;;;;4952339;28;93039;-70
2022/05/13 07:56:05;;;;;;;0.98;0.73;;;24.10;48.10;24.00;100629.00;;;;4949671;28;94789;-69
2022/05/13 07:58:31;;;;;;;4.18;0.90;;;24.00;48.10;24.10;100640.00;;;;4954925;28;93274;-68
2022/05/13 08:00:58;;;;;;;0.63;0.63;;;24.00;47.40;24.20;100625.00;;;;4953584;28;92807;-70
2022/05/13 08:03:26;;;;;;;0.30;0.30;;;24.00;47.00;24.20;100651.00;;;;4955298;28;93056;-68
2022/05/13 08:06:03;;;;;;;2.30;0.70;;;24.10;46.90;24.30;100650.00;;;;4949402;28;93242;-69
2022/05/13 08:08:35;;;;;;;1.35;0.77;;;24.10;45.80;24.30;100647.00;;;;4955731;28;93676;-68
2022/05/13 08:11:05;;;;;;;5.57;0.88;;;24.20;45.60;24.40;100642.00;;;;4952399;28;92889;-69
2022/05/13 08:13:34;;;;;;;0.82;0.77;;;24.20;45.30;24.40;100641.00;;;;4955310;28;92150;-68
2022/05/13 08:16:05;;;;;;;0.52;0.40;;;24.20;45.00;24.30;100638.00;;;;4954897;28;93655;-71
2022/05/13 08:18:30;;;;;;;0.73;0.60;;;24.20;44.60;24.20;100642.00;;;;4950785;28;92872;-67
2022/05/13 08:20:57;;;;;;;0.30;0.30;;;24.10;44.60;24.10;100651.00;;;;4948736;28;98044;-68
2022/05/13 08:23:23;;;;;;;0.43;0.43;;;24.00;44.50;24.10;100648.00;;;;4953971;28;93143;-68
2022/05/13 08:25:50;;;;;;;1.05;0.70;;;23.90;44.40;24.20;100654.00;;;;4954947;28;92895;-69
2022/05/13 08:28:18;;;;;;;1.17;0.52;;;24.00;44.30;24.40;100648.00;;;;4950631;28;94111;-69
2022/05/13 08:30:44;;;;;;;1.48;0.77;;;24.20;44.10;24.60;100651.00;;;;4954058;28;93292;-70
2022/05/13 08:33:11;;;;;;;1.35;0.90;;;24.30;43.80;24.70;100654.00;;;;4954565;28;96265;-69
2022/05/13 08:35:46;;;;;;;1.17;0.68;;;24.40;43.30;24.50;100653.00;;;;4952200;28;93227;-70
2022/05/13 08:38:14;;;;;;;1.40;0.60;;;24.40;43.60;24.40;100655.00;;;;4954909;28;93653;-69
2022/05/13 08:40:50;;;;;;;1.35;0.90;;;24.30;43.60;24.40;100650.00;;;;4951443;28;93060;-71
2022/05/13 08:43:36;;;;;;;0.80;0.70;;;24.30;43.50;24.50;100644.00;;;;4954811;28;93011;-70
2022/05/13 08:46:05;;;;;;;0.75;0.65;;;24.30;43.30;24.50;100643.00;;;;4951317;28;96070;-68
2022/05/13 08:48:34;;;;;;;1.02;0.90;;;24.30;42.60;24.60;100655.00;;;;4950521;28;114146;-69
2022/05/13 08:51:09;;;;;;;0.50;0.50;;;24.30;43.00;24.80;100652.00;;;;4948005;28;92833;-70
2022/05/13 08:53:48;;;;;;;0.65;0.45;;;24.50;43.00;25.00;100642.00;;;;4954400;28;109104;-69
2022/05/13 08:56:22;;;;;;;0.43;0.32;;;24.70;42.40;25.20;100655.00;;;;4954206;28;93204;-69
2022/05/13 08:59:35;;;;;;;0.80;0.77;;;24.90;42.30;25.20;100662.00;;;;4951506;28;95064;-71
2022/05/13 09:02:18;;;;;;;2.22;0.95;;;25.00;41.40;25.20;100657.00;;;;4945387;28;103714;-70
2022/05/13 09:05:00;;;;;;;1.05;0.75;;;25.00;41.80;25.00;100667.00;;;;4952777;28;92354;-68
2022/05/13 09:07:26;;;;;;;1.45;0.70;;;24.90;41.30;24.70;100653.00;;;;4954025;28;114391;-68
2022/05/13 09:09:58;;;;;;;0.70;0.55;;;24.60;41.50;24.50;100648.00;;;;4952400;28;120532;-67
2022/05/13 09:13:00;;;;;;;1.20;0.75;;;24.40;42.10;24.30;100655.00;;;;4953404;28;93541;-68
2022/05/13 09:15:48;;;;;;;0.50;0.50;;;24.20;42.60;24.10;100643.00;;;;4947978;28;93017;-67
2022/05/13 09:18:41;;;;;;;0.75;0.75;;;24.00;42.90;23.90;100644.00;;;;4945516;28;115453;-69
2022/05/13 09:21:16;;;;;;;2.75;0.77;;;23.80;42.80;23.70;100644.00;;;;4947772;28;94184;-69
2022/05/13 09:23:43;;;;;;;2.25;0.73;;;23.60;42.60;23.50;100655.00;;;;4952873;28;92878;-71
2022/05/13 09:26:17;;;;;;;1.27;0.65;;;23.40;42.90;23.30;100658.00;;;;4953946;28;100113;-69
2022/05/13 09:29:18;;;;;;;0.60;0.60;;;23.20;43.60;23.20;100657.00;;;;4953346;28;94495;-68
2022/05/13 09:32:04;;;;;;;2.67;0.70;;;23.00;43.80;23.10;100647.00;;;;4951731;28;92758;-68
2022/05/13 09:34:39;;;;;;;0.55;0.55;;;22.90;43.80;23.00;100648.00;;;;4948501;28;92923;-70
2022/05/13 09:37:12;;;;;;;1.33;0.60;;;22.80;44.00;23.20;100635.00;;;;4954127;28;92879;-69
2022/05/13 09:39:45;;;;;;;2.22;0.77;;;22.90;44.10;23.30;100635.00;;;;4950002;28;104666;-68
2022/05/13 09:42:40;;;;;;;2.15;0.75;;;23.00;43.80;23.30;100638.00;;;;4952911;28;93606;-68
2022/05/13 09:45:35;;;;;;;0.90;0.40;;;23.10;43.30;23.40;100620.00;;;;4944834;28;92884;-68
2022/05/13 09:48:13;;;;;;;3.17;0.90;;;23.20;43.80;23.50;100639.00;;;;4947777;28;92774;-69
2022/05/13 09:50:55;;;;;;;0.43;0.43;;;23.20;43.90;23.60;100647.00;;;;4949119;28;93892;-70
2022/05/13 09:53:21;;;;;;;2.17;0.80;;;23.30;43.90;23.60;100642.00;;;;4934829;28;93960;-70
2022/05/13 09:55:49;;;;;;;1.50;1.08;;;23.30;43.70;23.40;100651.00;;;;4951774;28;111675;-69
2022/05/13 09:58:27;;;;;;;0.80;0.80;;;23.30;43.60;23.40;100642.00;;;;4954164;28;92099;-71
2022/05/13 10:01:00;;;;;;;1.27;0.57;;;23.20;43.80;23.30;100640.00;;;;4951916;28;105995;-70
2022/05/13 10:03:36;;;;;;;2.15;0.90;;;23.10;44.10;23.20;100637.00;;;;4952864;28;116262;-68
2022/05/13 10:06:11;;;;;;;0.75;0.63;;;23.00;44.00;23.00;100647.00;;;;4951877;28;94134;-69
2022/05/13 10:13:57;;;;;;;1.45;1.00;;;22.80;44.10;23.00;100657.00;;;;4952815;28;92958;-70
2022/05/13 10:14:40;;;;;;;2.88;0.90;;;22.90;44.40;23.50;100645.00;;;;4949754;28;93153;-68
2022/05/13 10:17:17;;;;;;;1.27;1.17;;;23.10;44.20;23.70;100638.00;;;;4953602;28;92954;-69
2022/05/13 10:19:53;;;;;;;1.45;1.02;;;23.30;43.50;24.00;100628.00;;;;4944739;28;92758;-71
2022/05/13 10:22:53;;;;;;;1.10;0.93;;;23.50;42.80;24.40;100629.00;;;;4945850;28;105485;-70
2022/05/13 10:25:32;;;;;;;0.40;0.40;;;23.80;42.70;24.60;100628.00;;;;4899389;28;92280;-69
2022/05/13 10:28:10;;;;;;;1.15;0.88;;;24.10;42.10;24.70;100633.00;;;;4950551;28;105172;-69
2022/05/13 10:30:50;;;;;;;1.45;1.30;;;24.30;42.00;24.70;100628.00;;;;4950515;28;99769;-69
2022/05/13 10:33:38;;;;;;;3.03;1.08;;;24.30;41.70;24.50;100624.00;;;;4950267;28;94246;-72
2022/05/13 10:36:16;;;;;;;3.92;1.00;;;24.20;40.80;24.70;100622.00;;;;4949010;28;93999;-70
2022/05/13 10:39:15;;;;;;;0.98;0.80;;;24.30;41.30;24.90;100628.00;;;;4949657;28;97687;-69
2022/05/13 10:41:57;;;;;;;1.30;0.75;;;24.40;41.00;24.80;100626.00;;;;4938138;28;92775;-69
2022/05/13 10:44:23;;;;;;;1.50;1.27;;;24.40;40.10;24.70;100624.00;;;;4950417;28;93301;-70
2022/05/13 10:46:54;;;;;;;1.80;1.25;;;24.40;40.20;24.60;100624.00;;;;4951047;28;95444;-69
2022/05/13 10:49:20;;;;;;;4.43;0.80;;;24.30;40.30;24.50;100622.00;;;;4951858;28;93393;-70
2022/05/13 10:52:32;;;;;;;1.25;0.98;;;24.20;40.70;24.50;100613.00;;;;4948619;28;94255;-68
2022/05/13 10:55:51;;;;;;;1.10;0.90;;;24.10;40.70;24.60;100612.00;;;;4947418;28;93257;-71
2022/05/13 10:59:01;;;;;;;1.63;0.70;;;24.20;40.10;24.90;100619.00;;;;4910173;28;92986;-70
2022/05/13 11:01:57;;;;;;;0.63;0.63;;;24.40;39.10;25.00;100600.00;;;;4946658;28;99961;-68
2022/05/13 11:04:39;;;;;;;1.20;0.70;;;24.60;38.70;25.20;100612.00;;;;4952450;28;92833;-69
2022/05/13 11:07:38;;;;;;;0.68;0.68;;;24.80;38.60;25.20;100622.00;;;;4948709;28;93843;-69
2022/05/13 11:10:40;;;;;;;1.42;0.80;;;24.90;38.30;25.00;100625.00;;;;4952912;28;92881;-70
2022/05/13 11:13:41;;;;;;;1.27;0.88;;;24.70;38.00;24.60;100627.00;;;;4950012;28;92890;-69
2022/05/13 11:16:38;;;;;;;0.50;0.45;;;24.40;38.50;24.10;100625.00;;;;4946254;28;92919;-70
2022/05/13 11:19:17;;;;;;;0.70;0.70;;;24.10;39.00;23.90;100626.00;;;;4915474;28;93201;-68
2022/05/13 11:21:58;;;;;;;0.60;0.60;;;23.70;39.20;23.90;100615.00;;;;4945629;28;112683;-68
2022/05/13 11:28:29;;;;;;;1.65;1.13;;;23.60;39.30;23.90;100628.00;;;;4949145;28;93308;-70